Terminal Aerodrome Forecast
Issued by NWS Des Moines, IA

Home | Current Version | Previous Version | Text Only | Print | Product List | Glossary On
Versions: 1 2 3 4 5 6 7 8 9 10 11 12 13 14 15 16 17 18 19 20 21 22 23 24 25 26 27 28 29 30
000
FTUS43 KDMX 131729
TAFDSM
TAF
KDSM 131729Z 1318/1418 30011G17KT P6SM SCT028 SCT050
     FM132300 32006KT P6SM SCT050
     FM141500 32011KT P6SM FEW040
     FM141700 32015G24KT P6SM SCT040=

USA.gov is the U.S. government's official web portal to all federal, state and local government web resources and services.